createdAt,value
2018-02-14T00:00:03.797Z,56.60
2018-02-14T00:01:08.758Z,56.60
2018-02-14T00:02:13.667Z,56.60
2018-02-14T00:03:18.623Z,56.60
2018-02-14T00:04:23.400Z,56.60
2018-02-14T00:05:28.350Z,56.60
2018-02-14T00:06:33.401Z,56.70
2018-02-14T00:07:38.299Z,56.70
2018-02-14T00:08:43.043Z,56.60
2018-02-14T00:09:47.952Z,56.60
2018-02-14T00:10:52.873Z,56.70
2018-02-14T00:11:57.779Z,56.70
2018-02-14T00:13:02.731Z,56.80
2018-02-14T00:14:07.575Z,56.80
2018-02-14T00:15:12.444Z,56.80
2018-02-14T00:16:17.234Z,56.90
2018-02-14T00:17:22.006Z,56.90
2018-02-14T00:18:26.735Z,56.90
2018-02-14T00:19:31.739Z,56.90
2018-02-14T00:20:36.670Z,56.90
2018-02-14T00:21:41.578Z,56.90
2018-02-14T00:22:46.543Z,57.00
2018-02-14T00:23:51.311Z,57.00
2018-02-14T00:24:56.228Z,57.00
2018-02-14T00:26:01.134Z,57.00
2018-02-14T00:27:06.027Z,57.00
2018-02-14T00:28:13.745Z,57.00
2018-02-14T00:29:18.475Z,57.10
2018-02-14T00:30:23.402Z,57.00
2018-02-14T00:31:28.159Z,57.10
2018-02-14T00:32:32.978Z,57.10
2018-02-14T00:33:37.801Z,57.00
2018-02-14T00:34:42.689Z,57.10
2018-02-14T00:35:47.551Z,57.00
2018-02-14T00:36:52.452Z,57.00
2018-02-14T00:37:57.344Z,57.00
2018-02-14T00:39:02.289Z,57.10
2018-02-14T00:40:07.303Z,57.00
2018-02-14T00:41:12.076Z,57.00
2018-02-14T00:42:16.871Z,56.90
2018-02-14T00:43:24.837Z,57.00
2018-02-14T00:44:29.621Z,56.90
2018-02-14T00:45:34.513Z,56.90
2018-02-14T00:46:39.513Z,56.90
2018-02-14T00:47:44.312Z,56.90
2018-02-14T00:48:49.028Z,56.90
2018-02-14T00:49:53.776Z,56.90
2018-02-14T00:50:58.596Z,56.80
2018-02-14T00:52:03.472Z,56.80
2018-02-14T00:53:08.248Z,56.90
2018-02-14T00:54:13.069Z,56.90
2018-02-14T00:55:17.964Z,56.90
2018-02-14T00:56:22.690Z,56.70
2018-02-14T00:57:27.512Z,56.80
2018-02-14T00:58:32.318Z,56.80
2018-02-14T00:59:37.224Z,56.80
2018-02-14T01:00:41.973Z,56.80
2018-02-14T01:01:46.830Z,56.80
2018-02-14T01:02:51.507Z,56.80
2018-02-14T01:03:56.401Z,56.80
2018-02-14T01:05:01.219Z,56.80
2018-02-14T01:06:06.016Z,56.80
2018-02-14T01:07:11.040Z,56.80
2018-02-14T01:08:15.856Z,56.70
2018-02-14T01:09:20.579Z,56.70
2018-02-14T01:10:25.457Z,56.70
2018-02-14T01:11:30.262Z,56.60
2018-02-14T01:12:35.041Z,56.60
2018-02-14T01:13:40.064Z,57.20
2018-02-14T01:14:44.816Z,56.60
2018-02-14T01:15:49.533Z,56.60
2018-02-14T01:16:54.462Z,56.60
2018-02-14T01:17:59.202Z,56.60
2018-02-14T01:19:04.148Z,56.60
2018-02-14T01:20:09.013Z,56.50
2018-02-14T01:21:13.839Z,56.50
2018-02-14T01:22:18.629Z,56.60
2018-02-14T01:23:23.502Z,56.50
2018-02-14T01:24:28.347Z,56.50
2018-02-14T01:25:33.186Z,56.50
2018-02-14T01:26:38.058Z,56.50
2018-02-14T01:27:42.808Z,56.50
2018-02-14T01:28:47.600Z,56.50
2018-02-14T01:29:52.588Z,56.40
2018-02-14T01:30:57.523Z,56.40
2018-02-14T01:32:02.303Z,56.40
2018-02-14T01:33:07.211Z,56.40
2018-02-14T01:34:11.975Z,56.40
2018-02-14T01:35:16.820Z,56.40
2018-02-14T01:36:21.705Z,56.40
2018-02-14T01:37:26.416Z,56.40
2018-02-14T01:38:31.163Z,56.40
2018-02-14T01:39:35.927Z,56.40
2018-02-14T01:40:40.907Z,56.40
2018-02-14T01:41:45.801Z,56.40
2018-02-14T01:42:50.752Z,56.30
2018-02-14T01:43:55.589Z,56.40
2018-02-14T01:45:00.655Z,56.30
2018-02-14T01:46:05.583Z,56.30
2018-02-14T01:47:10.424Z,56.30
2018-02-14T01:48:15.155Z,56.30
2018-02-14T01:49:20.056Z,56.40
2018-02-14T01:50:24.767Z,56.40
2018-02-14T01:51:29.608Z,56.30
2018-02-14T01:52:34.525Z,56.30
2018-02-14T01:53:39.399Z,56.30
2018-02-14T01:54:44.255Z,56.30
2018-02-14T01:55:49.026Z,56.30
2018-02-14T01:56:53.894Z,56.20
2018-02-14T01:57:58.718Z,56.20
2018-02-14T01:59:03.672Z,56.20
2018-02-14T02:00:08.689Z,56.20
2018-02-14T02:01:13.558Z,56.10
2018-02-14T02:02:18.354Z,56.20
2018-02-14T02:03:23.419Z,56.10
2018-02-14T02:04:28.230Z,56.20
2018-02-14T02:05:33.052Z,56.20
2018-02-14T02:06:38.000Z,56.20
2018-02-14T02:07:42.979Z,56.10
2018-02-14T02:08:47.783Z,56.10
2018-02-14T02:09:52.604Z,56.10
2018-02-14T02:10:57.323Z,56.20
2018-02-14T02:12:02.154Z,56.10
2018-02-14T02:13:06.876Z,56.10
2018-02-14T02:14:11.659Z,56.00
2018-02-14T02:15:16.565Z,56.00
2018-02-14T02:16:21.971Z,56.10
2018-02-14T02:17:26.968Z,56.00
2018-02-14T02:18:31.904Z,56.00
2018-02-14T02:19:36.935Z,56.00
2018-02-14T02:20:41.845Z,56.00
2018-02-14T02:21:46.646Z,56.00
2018-02-14T02:22:51.689Z,56.00
2018-02-14T02:23:56.623Z,56.00
2018-02-14T02:25:01.368Z,56.00
2018-02-14T02:26:06.736Z,55.90
2018-02-14T02:27:11.660Z,55.90
2018-02-14T02:28:16.411Z,55.90
2018-02-14T02:29:21.318Z,55.80
2018-02-14T02:30:26.073Z,55.90
2018-02-14T02:31:30.836Z,55.80
2018-02-14T02:32:35.862Z,55.80
2018-02-14T02:33:40.917Z,55.80
2018-02-14T02:34:45.768Z,55.80
2018-02-14T02:35:50.739Z,55.80
2018-02-14T02:36:55.549Z,55.80
2018-02-14T02:38:00.400Z,55.80
2018-02-14T02:39:05.276Z,55.80
2018-02-14T02:40:09.976Z,55.80
2018-02-14T02:41:14.634Z,55.80
2018-02-14T02:42:19.580Z,55.70
2018-02-14T02:43:24.585Z,55.80
2018-02-14T02:44:29.681Z,55.70
2018-02-14T02:45:34.702Z,55.70
2018-02-14T02:46:39.487Z,55.70
2018-02-14T02:47:44.295Z,55.70
2018-02-14T02:48:49.259Z,55.70
2018-02-14T02:49:54.074Z,55.70
2018-02-14T02:50:58.886Z,55.70
2018-02-14T02:52:03.602Z,55.60
2018-02-14T02:53:08.806Z,55.60
2018-02-14T02:54:13.653Z,55.60
2018-02-14T02:55:18.425Z,55.60
2018-02-14T02:56:23.098Z,55.60
2018-02-14T02:57:27.861Z,55.60
2018-02-14T02:58:32.862Z,55.60
2018-02-14T02:59:37.739Z,55.60
2018-02-14T03:00:42.522Z,55.60
2018-02-14T03:01:47.344Z,55.60
2018-02-14T03:02:52.098Z,55.50
2018-02-14T03:03:57.003Z,55.50
2018-02-14T03:05:01.834Z,55.50
2018-02-14T03:06:06.608Z,55.50
2018-02-14T03:07:11.396Z,55.50
2018-02-14T03:08:16.233Z,55.50
2018-02-14T03:09:21.118Z,55.40
2018-02-14T03:10:26.117Z,55.40
2018-02-14T03:11:30.823Z,55.40
2018-02-14T03:12:36.018Z,55.40
2018-02-14T03:13:40.774Z,55.30
2018-02-14T03:14:45.680Z,55.30
2018-02-14T03:15:50.510Z,55.30
2018-02-14T03:16:55.370Z,55.30
2018-02-14T03:18:00.118Z,55.30
2018-02-14T03:19:04.917Z,55.30
2018-02-14T03:20:09.660Z,55.30
2018-02-14T03:21:14.432Z,55.30
2018-02-14T03:22:19.362Z,55.30
2018-02-14T03:23:24.383Z,55.30
2018-02-14T03:24:29.141Z,55.20
2018-02-14T03:25:34.126Z,55.20
2018-02-14T03:26:39.123Z,55.20
2018-02-14T03:27:43.894Z,55.20
2018-02-14T03:28:48.797Z,55.20
2018-02-14T03:29:53.764Z,55.20
2018-02-14T03:30:58.581Z,55.30
2018-02-14T03:32:03.361Z,55.20
2018-02-14T03:33:08.151Z,55.20
2018-02-14T03:34:12.967Z,55.20
2018-02-14T03:35:17.961Z,55.20
2018-02-14T03:36:22.834Z,55.20
2018-02-14T03:37:27.705Z,55.10
2018-02-14T03:38:32.438Z,55.10
2018-02-14T03:39:37.362Z,55.10
2018-02-14T03:40:42.202Z,55.20
2018-02-14T03:41:46.921Z,55.10
2018-02-14T03:42:51.687Z,55.10
2018-02-14T03:43:56.427Z,55.10
2018-02-14T03:45:01.326Z,55.10
2018-02-14T03:46:06.205Z,55.10
2018-02-14T03:47:11.084Z,55.10
2018-02-14T03:48:16.004Z,55.00
2018-02-14T03:49:20.836Z,55.10
2018-02-14T03:50:25.595Z,55.10
2018-02-14T03:51:30.418Z,55.10
2018-02-14T03:52:35.222Z,55.00
2018-02-14T03:53:39.954Z,55.00
2018-02-14T03:54:44.755Z,55.00
2018-02-14T03:55:49.478Z,54.90
2018-02-14T03:56:54.208Z,54.90
2018-02-14T03:57:58.926Z,54.90
2018-02-14T03:59:03.753Z,54.90
2018-02-14T04:00:08.741Z,54.90
2018-02-14T04:01:13.746Z,54.90
2018-02-14T04:02:18.630Z,55.10
2018-02-14T04:03:23.498Z,54.80
2018-02-14T04:04:28.487Z,54.80
2018-02-14T04:05:33.306Z,54.80
2018-02-14T04:06:38.139Z,54.80
2018-02-14T04:07:42.952Z,54.80
2018-02-14T04:08:47.839Z,54.80
2018-02-14T04:09:52.741Z,54.80
2018-02-14T04:10:57.547Z,54.80
2018-02-14T04:12:02.408Z,54.80
2018-02-14T04:13:07.331Z,54.70
2018-02-14T04:14:12.226Z,54.80
2018-02-14T04:15:17.265Z,54.80
2018-02-14T04:16:22.113Z,54.80
2018-02-14T04:17:27.055Z,54.80
2018-02-14T04:18:31.842Z,54.80
2018-02-14T04:19:36.721Z,54.80
2018-02-14T04:20:41.629Z,54.70
2018-02-14T04:21:46.502Z,54.70
2018-02-14T04:22:51.294Z,54.80
2018-02-14T04:23:56.325Z,54.70
2018-02-14T04:25:01.358Z,54.80
2018-02-14T04:26:06.146Z,54.70
2018-02-14T04:27:10.983Z,54.70
2018-02-14T04:28:15.747Z,54.70
2018-02-14T04:29:20.484Z,54.70
2018-02-14T04:30:25.205Z,54.70
2018-02-14T04:31:30.103Z,54.70
2018-02-14T04:32:34.981Z,54.70
2018-02-14T04:33:39.879Z,54.60
2018-02-14T04:34:44.689Z,54.60
2018-02-14T04:35:49.497Z,54.60
2018-02-14T04:36:54.478Z,54.70
2018-02-14T04:37:59.311Z,54.60
2018-02-14T04:39:04.101Z,54.60
2018-02-14T04:40:08.789Z,54.60
2018-02-14T04:41:13.664Z,54.60
2018-02-14T04:42:18.620Z,54.50
2018-02-14T04:43:23.395Z,54.50
2018-02-14T04:44:28.245Z,54.50
2018-02-14T04:45:33.021Z,54.50
2018-02-14T04:46:37.783Z,54.50
2018-02-14T04:47:42.682Z,54.50
2018-02-14T04:48:47.434Z,54.50
2018-02-14T04:49:52.300Z,54.50
2018-02-14T04:50:57.228Z,54.40
2018-02-14T04:52:02.118Z,54.50
2018-02-14T04:53:07.029Z,54.40
2018-02-14T04:54:11.928Z,54.40
2018-02-14T04:55:16.686Z,54.40
2018-02-14T04:56:21.477Z,54.50
2018-02-14T04:57:26.233Z,54.40
2018-02-14T04:58:31.053Z,54.40
2018-02-14T04:59:35.796Z,54.40
2018-02-14T05:00:40.543Z,54.40
2018-02-14T05:01:45.471Z,54.40
2018-02-14T05:02:50.276Z,54.40
2018-02-14T05:03:55.155Z,54.40
2018-02-14T05:05:00.024Z,54.40
2018-02-14T05:06:04.840Z,54.40
2018-02-14T05:07:09.591Z,54.40
2018-02-14T05:08:14.317Z,54.30
2018-02-14T05:09:19.121Z,54.30
2018-02-14T05:10:23.970Z,54.30
2018-02-14T05:11:28.788Z,54.30
2018-02-14T05:12:33.710Z,54.30
2018-02-14T05:13:38.488Z,54.30
2018-02-14T05:14:43.539Z,54.30
2018-02-14T05:15:48.483Z,54.30
2018-02-14T05:16:53.500Z,54.30
2018-02-14T05:17:58.592Z,54.30
2018-02-14T05:19:03.288Z,54.30
2018-02-14T05:20:08.112Z,54.30
2018-02-14T05:21:12.839Z,54.30
2018-02-14T05:22:17.674Z,54.30
2018-02-14T05:23:23.108Z,54.30
2018-02-14T05:24:28.382Z,54.20
2018-02-14T05:25:33.215Z,54.20
2018-02-14T05:26:38.034Z,54.20
2018-02-14T05:27:42.819Z,54.20
2018-02-14T05:28:47.614Z,54.20
2018-02-14T05:29:52.717Z,54.20
2018-02-14T05:30:57.557Z,54.20
2018-02-14T05:32:02.532Z,54.20
2018-02-14T05:33:07.410Z,54.10
2018-02-14T05:34:12.854Z,54.10
2018-02-14T05:35:17.808Z,54.10
2018-02-14T05:36:22.619Z,54.10
2018-02-14T05:37:27.350Z,54.10
2018-02-14T05:38:32.084Z,54.10
2018-02-14T05:39:36.831Z,54.10
2018-02-14T05:40:41.665Z,54.00
2018-02-14T05:41:46.541Z,54.00
2018-02-14T05:42:51.271Z,54.00
2018-02-14T05:43:55.988Z,54.00
2018-02-14T05:45:00.844Z,54.00
2018-02-14T05:46:05.660Z,53.90
2018-02-14T05:47:10.653Z,54.00
2018-02-14T05:48:15.386Z,54.00
2018-02-14T05:49:20.147Z,53.90
2018-02-14T05:50:25.633Z,54.00
2018-02-14T05:51:30.766Z,54.00
2018-02-14T05:52:35.600Z,54.00
2018-02-14T05:53:40.443Z,53.90
2018-02-14T05:54:45.333Z,53.90
2018-02-14T05:55:50.307Z,53.90
2018-02-14T05:56:55.308Z,53.90
2018-02-14T05:58:00.283Z,53.90
2018-02-14T05:59:05.032Z,54.10
2018-02-14T06:00:09.896Z,54.20
2018-02-14T06:01:14.583Z,54.30
2018-02-14T06:02:19.480Z,54.10
2018-02-14T06:03:25.972Z,54.00
2018-02-14T06:04:31.038Z,54.00
2018-02-14T06:05:35.916Z,54.00
2018-02-14T06:06:40.960Z,53.90
2018-02-14T06:07:46.249Z,53.90
2018-02-14T06:08:51.152Z,53.90
2018-02-14T06:09:56.060Z,53.90
2018-02-14T06:11:02.110Z,53.80
2018-02-14T06:12:07.204Z,53.80
2018-02-14T06:13:13.011Z,53.90
2018-02-14T06:14:20.239Z,53.80
2018-02-14T06:15:26.459Z,53.80
2018-02-14T06:16:32.251Z,54.00
2018-02-14T06:17:39.522Z,54.10
2018-02-14T06:18:46.118Z,54.20
2018-02-14T06:19:51.710Z,54.30
2018-02-14T06:20:57.312Z,54.20
2018-02-14T06:22:03.174Z,54.10
2018-02-14T06:23:08.839Z,54.00
2018-02-14T06:24:13.656Z,53.90
2018-02-14T06:25:18.754Z,53.90
2018-02-14T06:26:24.306Z,53.70
2018-02-14T06:27:29.861Z,53.70
2018-02-14T06:28:34.715Z,53.40
2018-02-14T06:29:39.827Z,53.30
2018-02-14T06:30:44.691Z,53.20
2018-02-14T06:31:49.542Z,53.00
2018-02-14T06:32:54.722Z,52.90
2018-02-14T06:33:59.740Z,52.60
2018-02-14T06:35:04.733Z,53.20
2018-02-14T06:36:09.548Z,52.50
2018-02-14T06:37:14.350Z,52.30
2018-02-14T06:38:19.161Z,52.20
2018-02-14T06:39:24.058Z,52.20
2018-02-14T06:40:28.769Z,52.10
2018-02-14T06:41:33.636Z,52.10
2018-02-14T06:42:38.393Z,52.20
2018-02-14T06:43:43.288Z,52.10
2018-02-14T06:44:48.151Z,52.60
2018-02-14T06:45:53.046Z,52.60
2018-02-14T06:46:57.899Z,52.70
2018-02-14T06:48:02.758Z,52.80
2018-02-14T06:49:07.527Z,52.80
2018-02-14T06:50:12.442Z,52.90
2018-02-14T06:51:17.175Z,52.90
2018-02-14T06:52:21.959Z,52.20
2018-02-14T06:53:26.772Z,52.20
2018-02-14T06:54:31.598Z,52.30
2018-02-14T06:55:36.753Z,52.10
2018-02-14T06:56:41.871Z,52.00
2018-02-14T06:57:46.972Z,52.00
2018-02-14T06:58:52.005Z,52.10
2018-02-14T06:59:56.778Z,52.10
2018-02-14T07:01:01.594Z,52.30
2018-02-14T07:02:06.623Z,52.30
2018-02-14T07:03:11.350Z,52.40
2018-02-14T07:04:16.045Z,52.40
2018-02-14T07:05:20.803Z,52.30
2018-02-14T07:06:25.714Z,52.20
2018-02-14T07:07:30.864Z,52.00
2018-02-14T07:08:35.730Z,52.00
2018-02-14T07:09:40.596Z,51.90
2018-02-14T07:10:45.505Z,52.00
2018-02-14T07:11:50.321Z,51.90
2018-02-14T07:12:55.239Z,51.80
2018-02-14T07:13:59.960Z,51.80
2018-02-14T07:15:04.795Z,51.80
2018-02-14T07:16:09.778Z,52.10
2018-02-14T07:17:14.619Z,52.00
2018-02-14T07:18:19.341Z,51.80
2018-02-14T07:19:24.055Z,51.90
2018-02-14T07:20:28.947Z,51.80
2018-02-14T07:21:33.692Z,51.10
2018-02-14T07:22:38.688Z,50.50
2018-02-14T07:23:43.667Z,49.80
2018-02-14T07:24:48.546Z,49.90
2018-02-14T07:25:53.758Z,49.70
2018-02-14T07:26:58.630Z,49.60
2018-02-14T07:28:03.475Z,49.70
2018-02-14T07:29:08.419Z,49.30
2018-02-14T07:30:13.279Z,49.20
2018-02-14T07:31:18.223Z,49.10
2018-02-14T07:32:22.990Z,49.20
2018-02-14T07:33:28.111Z,49.10
2018-02-14T07:34:32.969Z,49.10
2018-02-14T07:35:37.947Z,49.10
2018-02-14T07:36:42.848Z,49.20
2018-02-14T07:37:47.718Z,49.20
2018-02-14T07:38:52.434Z,49.30
2018-02-14T07:39:57.177Z,49.40
2018-02-14T07:41:02.128Z,49.60
2018-02-14T07:42:07.037Z,49.70
2018-02-14T07:43:13.232Z,49.70
2018-02-14T07:44:19.790Z,49.80
2018-02-14T07:45:26.190Z,50.00
2018-02-14T07:46:32.551Z,50.00
2018-02-14T07:47:38.727Z,49.90
2018-02-14T07:48:44.787Z,49.90
2018-02-14T07:49:52.427Z,49.90
2018-02-14T07:50:58.656Z,49.90
2018-02-14T07:52:05.082Z,50.00
2018-02-14T07:53:11.522Z,50.10
2018-02-14T07:54:18.090Z,50.10
2018-02-14T07:55:24.483Z,50.00
2018-02-14T07:56:30.990Z,50.10
2018-02-14T07:57:37.451Z,50.20
2018-02-14T07:58:43.661Z,50.30
2018-02-14T07:59:50.053Z,50.40
2018-02-14T08:00:56.790Z,50.40
2018-02-14T08:02:03.174Z,50.50
2018-02-14T08:03:09.534Z,50.60
2018-02-14T08:04:16.274Z,50.70
2018-02-14T08:05:22.862Z,50.80
2018-02-14T08:06:29.387Z,51.00
2018-02-14T08:07:35.721Z,51.00
2018-02-14T08:08:42.238Z,51.10
2018-02-14T08:09:48.724Z,51.10
2018-02-14T08:10:53.586Z,51.20
2018-02-14T08:11:58.480Z,51.10
2018-02-14T08:13:04.643Z,51.20
2018-02-14T08:14:09.404Z,51.30
2018-02-14T08:15:14.337Z,51.40
2018-02-14T08:16:20.261Z,51.50
2018-02-14T08:17:25.315Z,51.60
2018-02-14T08:18:31.157Z,51.60
2018-02-14T08:19:35.916Z,51.60
2018-02-14T08:20:40.717Z,51.60
2018-02-14T08:21:45.671Z,51.80
2018-02-14T08:22:50.832Z,51.70
2018-02-14T08:23:56.005Z,51.70
2018-02-14T08:25:01.347Z,51.80
2018-02-14T08:26:06.970Z,51.90
2018-02-14T08:27:12.019Z,52.30
2018-02-14T08:28:16.970Z,52.20
2018-02-14T08:29:21.972Z,52.20
2018-02-14T08:30:27.422Z,52.20
2018-02-14T08:31:32.453Z,52.30
2018-02-14T08:32:37.384Z,52.30
2018-02-14T08:33:42.230Z,52.50
2018-02-14T08:34:48.217Z,52.60
2018-02-14T08:35:53.120Z,52.70
2018-02-14T08:36:57.908Z,52.60
2018-02-14T08:38:02.937Z,52.50
2018-02-14T08:39:07.972Z,52.60
2018-02-14T08:40:13.012Z,52.50
2018-02-14T08:41:18.270Z,52.50
2018-02-14T08:42:23.123Z,52.60
2018-02-14T08:43:28.011Z,52.50
2018-02-14T08:44:32.802Z,52.50
2018-02-14T08:45:37.953Z,52.50
2018-02-14T08:46:42.785Z,52.50
2018-02-14T08:47:47.613Z,52.60
2018-02-14T08:48:52.507Z,52.70
2018-02-14T08:49:57.261Z,52.90
2018-02-14T08:51:02.278Z,52.80
2018-02-14T08:52:07.218Z,52.80
2018-02-14T08:53:12.308Z,52.70
2018-02-14T08:54:17.283Z,52.70
2018-02-14T08:55:22.318Z,52.70
2018-02-14T08:56:27.021Z,52.60
2018-02-14T08:57:31.863Z,52.50
2018-02-14T08:58:36.564Z,52.50
2018-02-14T08:59:41.442Z,52.40
2018-02-14T09:00:46.127Z,52.50
2018-02-14T09:01:50.861Z,52.50
2018-02-14T09:02:56.509Z,52.30
2018-02-14T09:04:01.579Z,52.40
2018-02-14T09:05:06.507Z,52.40
2018-02-14T09:06:11.294Z,52.30
2018-02-14T09:07:16.187Z,52.30
2018-02-14T09:08:20.889Z,52.20
2018-02-14T09:09:25.671Z,52.20
2018-02-14T09:10:30.370Z,52.30
2018-02-14T09:11:35.134Z,52.20
2018-02-14T09:12:40.058Z,52.20
2018-02-14T09:13:44.909Z,52.20
2018-02-14T09:14:49.924Z,52.10
2018-02-14T09:15:54.637Z,52.20
2018-02-14T09:16:59.381Z,52.10
2018-02-14T09:18:04.340Z,52.00
2018-02-14T09:19:09.147Z,52.10
2018-02-14T09:20:14.016Z,52.10
2018-02-14T09:21:18.913Z,52.10
2018-02-14T09:22:23.785Z,52.10
2018-02-14T09:23:28.572Z,52.10
2018-02-14T09:24:33.398Z,52.70
2018-02-14T09:25:38.208Z,52.00
2018-02-14T09:26:43.238Z,52.10
2018-02-14T09:27:47.939Z,52.10
2018-02-14T09:28:52.682Z,52.00
2018-02-14T09:29:57.549Z,52.00
2018-02-14T09:31:02.509Z,52.00
2018-02-14T09:32:07.264Z,51.90
2018-02-14T09:33:12.108Z,51.90
2018-02-14T09:34:16.879Z,51.90
2018-02-14T09:35:21.810Z,51.90
2018-02-14T09:36:26.652Z,51.90
2018-02-14T09:37:31.536Z,51.90
2018-02-14T09:38:36.514Z,51.90
2018-02-14T09:39:41.255Z,51.90
2018-02-14T09:40:46.100Z,51.90
2018-02-14T09:41:50.952Z,51.90
2018-02-14T09:42:55.957Z,51.90
2018-02-14T09:44:00.916Z,51.80
2018-02-14T09:45:05.825Z,51.80
2018-02-14T09:46:10.590Z,51.80
2018-02-14T09:47:15.407Z,51.90
2018-02-14T09:48:20.309Z,51.80
2018-02-14T09:49:25.117Z,51.80
2018-02-14T09:50:29.955Z,51.80
2018-02-14T09:51:34.849Z,51.80
2018-02-14T09:52:39.605Z,51.80
2018-02-14T09:53:44.462Z,51.70
2018-02-14T09:54:49.234Z,51.80
2018-02-14T09:55:54.062Z,51.80
2018-02-14T09:56:58.935Z,51.80
2018-02-14T09:58:03.657Z,51.80
2018-02-14T09:59:08.352Z,51.80
2018-02-14T10:00:13.051Z,51.80
2018-02-14T10:01:17.710Z,51.80
2018-02-14T10:02:22.608Z,51.80
2018-02-14T10:03:27.387Z,51.80
2018-02-14T10:04:32.162Z,51.70
2018-02-14T10:05:37.013Z,51.70
2018-02-14T10:06:41.822Z,51.70
2018-02-14T10:07:46.638Z,51.70
2018-02-14T10:08:51.392Z,51.70
2018-02-14T10:09:56.097Z,51.70
2018-02-14T10:11:00.805Z,51.70
2018-02-14T10:12:05.764Z,51.70
2018-02-14T10:13:10.664Z,51.70
2018-02-14T10:14:15.310Z,51.70
2018-02-14T10:15:20.148Z,51.60
2018-02-14T10:16:25.505Z,51.70
2018-02-14T10:17:30.281Z,51.70
2018-02-14T10:18:35.091Z,51.70
2018-02-14T10:19:40.013Z,51.70
2018-02-14T10:20:44.915Z,51.70
2018-02-14T10:21:49.658Z,51.70
2018-02-14T10:22:54.502Z,51.70
2018-02-14T10:23:59.225Z,51.70
2018-02-14T10:25:04.184Z,51.70
2018-02-14T10:26:09.051Z,51.70
2018-02-14T10:27:13.942Z,51.70
2018-02-14T10:28:18.770Z,51.80
2018-02-14T10:29:23.726Z,51.80
2018-02-14T10:30:28.570Z,51.70
2018-02-14T10:31:33.399Z,51.70
2018-02-14T10:32:38.338Z,51.70
2018-02-14T10:33:43.142Z,51.70
2018-02-14T10:34:47.886Z,51.70
2018-02-14T10:35:52.618Z,51.80
2018-02-14T10:36:57.370Z,51.80
2018-02-14T10:38:02.734Z,51.70
2018-02-14T10:39:07.635Z,51.80
2018-02-14T10:40:12.486Z,51.70
2018-02-14T10:41:17.191Z,51.60
2018-02-14T10:42:21.998Z,51.70
2018-02-14T10:43:26.697Z,51.60
2018-02-14T10:44:31.647Z,51.60
2018-02-14T10:45:36.566Z,51.60
2018-02-14T10:46:41.283Z,51.70
2018-02-14T10:47:46.303Z,51.70
2018-02-14T10:48:51.137Z,51.60
2018-02-14T10:49:55.877Z,51.70
2018-02-14T10:51:00.703Z,51.70
2018-02-14T10:52:05.662Z,51.70
2018-02-14T10:53:10.528Z,51.70
2018-02-14T10:54:15.456Z,51.70
2018-02-14T10:55:20.285Z,51.60
2018-02-14T10:56:25.188Z,51.60
2018-02-14T10:57:30.083Z,51.60
2018-02-14T10:58:35.059Z,51.60
2018-02-14T10:59:39.808Z,51.70
2018-02-14T11:00:44.568Z,51.60
2018-02-14T11:01:49.413Z,51.60
2018-02-14T11:02:54.317Z,51.60
2018-02-14T11:03:59.232Z,51.60
2018-02-14T11:05:03.926Z,51.60
2018-02-14T11:06:08.636Z,51.60
2018-02-14T11:07:13.347Z,51.60
2018-02-14T11:08:18.063Z,51.60
2018-02-14T11:09:22.778Z,51.60
2018-02-14T11:10:27.658Z,51.60
2018-02-14T11:11:32.424Z,51.60
2018-02-14T11:12:37.364Z,51.50
2018-02-14T11:13:42.078Z,51.60
2018-02-14T11:14:46.882Z,51.50
2018-02-14T11:15:51.588Z,51.50
2018-02-14T11:16:56.413Z,51.50
2018-02-14T11:18:01.165Z,51.50
2018-02-14T11:19:06.036Z,51.50
2018-02-14T11:20:10.844Z,51.50
2018-02-14T11:21:15.741Z,51.60
2018-02-14T11:22:20.494Z,51.60
2018-02-14T11:23:25.283Z,51.60
2018-02-14T11:24:30.018Z,51.60
2018-02-14T11:25:34.884Z,51.60
2018-02-14T11:26:39.711Z,51.60
2018-02-14T11:27:44.583Z,52.20
2018-02-14T11:28:49.402Z,51.50
2018-02-14T11:29:55.107Z,51.50
2018-02-14T11:30:59.809Z,51.50
2018-02-14T11:32:04.557Z,51.50
2018-02-14T11:33:09.536Z,51.50
2018-02-14T11:34:14.493Z,51.50
2018-02-14T11:35:19.483Z,51.50
2018-02-14T11:36:24.390Z,51.60
2018-02-14T11:37:29.328Z,51.60
2018-02-14T11:38:34.327Z,51.50
2018-02-14T11:39:39.172Z,51.60
2018-02-14T11:40:44.098Z,51.50
2018-02-14T11:41:49.010Z,51.60
2018-02-14T11:42:54.461Z,51.50
2018-02-14T11:43:59.272Z,51.50
2018-02-14T11:45:04.030Z,51.50
2018-02-14T11:46:08.779Z,51.50
2018-02-14T11:47:13.664Z,51.50
2018-02-14T11:48:18.445Z,51.50
2018-02-14T11:49:23.388Z,51.50
2018-02-14T11:50:28.223Z,51.50
2018-02-14T11:51:32.958Z,51.40
2018-02-14T11:52:37.705Z,51.40
2018-02-14T11:53:42.897Z,51.40
2018-02-14T11:54:47.851Z,52.00
2018-02-14T11:55:52.596Z,51.40
2018-02-14T11:56:57.463Z,51.40
2018-02-14T11:58:02.507Z,51.30
2018-02-14T11:59:07.370Z,51.30
2018-02-14T12:00:12.382Z,51.40
2018-02-14T12:01:17.099Z,51.40
2018-02-14T12:02:21.959Z,51.30
2018-02-14T12:03:26.738Z,51.30
2018-02-14T12:04:31.409Z,51.30
2018-02-14T12:05:36.167Z,51.30
2018-02-14T12:06:41.066Z,51.30
2018-02-14T12:07:45.778Z,51.30
2018-02-14T12:08:50.523Z,51.30
2018-02-14T12:09:55.409Z,51.30
2018-02-14T12:11:00.205Z,51.30
2018-02-14T12:12:05.020Z,51.30
2018-02-14T12:13:09.908Z,51.30
2018-02-14T12:14:14.714Z,51.30
2018-02-14T12:15:19.591Z,51.30
2018-02-14T12:16:24.446Z,51.20
2018-02-14T12:17:29.154Z,51.20
2018-02-14T12:18:34.153Z,51.20
2018-02-14T12:19:38.995Z,51.30
2018-02-14T12:20:43.918Z,51.20
2018-02-14T12:21:48.787Z,51.20
2018-02-14T12:22:53.540Z,51.10
2018-02-14T12:23:58.332Z,51.30
2018-02-14T12:25:03.209Z,51.30
2018-02-14T12:26:08.273Z,51.20
2018-02-14T12:27:12.961Z,51.20
2018-02-14T12:28:17.758Z,51.80
2018-02-14T12:29:22.510Z,51.20
2018-02-14T12:30:27.258Z,51.20
2018-02-14T12:31:32.243Z,51.20
2018-02-14T12:32:37.108Z,51.20
2018-02-14T12:33:42.022Z,51.10
2018-02-14T12:34:46.789Z,51.10
2018-02-14T12:35:51.577Z,51.10
2018-02-14T12:36:56.367Z,51.10
2018-02-14T12:38:01.131Z,51.20
2018-02-14T12:39:06.048Z,51.00
2018-02-14T12:40:10.963Z,51.10
2018-02-14T12:41:15.802Z,51.20
2018-02-14T12:42:20.708Z,51.20
2018-02-14T12:43:25.563Z,51.10
2018-02-14T12:44:30.324Z,51.10
2018-02-14T12:45:35.049Z,51.10
2018-02-14T12:46:39.911Z,51.10
2018-02-14T12:47:44.824Z,51.00
2018-02-14T12:48:49.630Z,51.00
2018-02-14T12:49:54.345Z,51.00
2018-02-14T12:50:59.043Z,50.90
2018-02-14T12:52:03.725Z,50.90
2018-02-14T12:53:08.494Z,50.90
2018-02-14T12:54:13.177Z,50.90
2018-02-14T12:55:18.008Z,50.90
2018-02-14T12:56:22.697Z,50.90
2018-02-14T12:57:27.550Z,50.90
2018-02-14T12:58:32.254Z,50.90
2018-02-14T12:59:36.932Z,50.90
2018-02-14T13:00:42.026Z,50.90
2018-02-14T13:01:46.913Z,50.80
2018-02-14T13:02:51.669Z,50.80
2018-02-14T13:03:56.377Z,50.80
2018-02-14T13:05:01.241Z,50.70
2018-02-14T13:06:05.941Z,50.80
2018-02-14T13:07:10.883Z,50.70
2018-02-14T13:08:15.572Z,50.70
2018-02-14T13:09:20.325Z,50.70
2018-02-14T13:10:25.242Z,50.70
2018-02-14T13:11:30.234Z,50.70
2018-02-14T13:12:35.088Z,50.80
2018-02-14T13:13:40.077Z,50.80
2018-02-14T13:14:44.789Z,50.80
2018-02-14T13:15:49.495Z,50.90
2018-02-14T13:16:54.604Z,50.80
2018-02-14T13:17:59.745Z,50.80
2018-02-14T13:19:04.494Z,50.80
2018-02-14T13:20:09.271Z,50.70
2018-02-14T13:21:14.097Z,50.90
2018-02-14T13:22:18.818Z,51.00
2018-02-14T13:23:23.581Z,51.00
2018-02-14T13:24:28.320Z,50.80
2018-02-14T13:25:33.200Z,51.00
2018-02-14T13:26:38.031Z,50.90
2018-02-14T13:27:42.884Z,51.10
2018-02-14T13:28:47.719Z,51.10
2018-02-14T13:29:52.436Z,50.90
2018-02-14T13:30:57.295Z,51.20
2018-02-14T13:32:02.115Z,51.10
2018-02-14T13:33:06.949Z,51.10
2018-02-14T13:34:11.604Z,51.40
2018-02-14T13:35:16.564Z,51.20
2018-02-14T13:36:21.353Z,51.30
2018-02-14T13:37:26.228Z,51.30
2018-02-14T13:38:31.257Z,51.30
2018-02-14T13:39:36.342Z,51.40
2018-02-14T13:40:41.049Z,51.30
2018-02-14T13:41:45.930Z,51.50
2018-02-14T13:42:50.680Z,51.50
2018-02-14T13:43:55.441Z,51.50
2018-02-14T13:45:00.128Z,51.60
2018-02-14T13:46:04.803Z,51.50
2018-02-14T13:47:09.649Z,51.50
2018-02-14T13:48:14.387Z,51.50
2018-02-14T13:49:19.128Z,51.60
2018-02-14T13:50:23.946Z,51.60
2018-02-14T13:51:28.795Z,51.50
2018-02-14T13:52:33.528Z,51.60
2018-02-14T13:53:38.389Z,51.60
2018-02-14T13:54:43.275Z,51.50
2018-02-14T13:55:48.175Z,51.60